Time;durP1;ratioP1;P1;durP2;ratioP2;P2;SDS_P1;SDS_P2;PMS_P1;PMS_P2;Temp;Humidity;BMP_temperature;BMP_pressure;BME280_temperature;BME280_humidity;BME280_pressure;Samples;Min_cycle;Max_cycle;Signal;HPM_P1;HPM_P2
2022/01/29 00:00:59;;;;;;;3.30;3.20;;;;;;;-1.48;83.97;92610.66;5036661;28;20520;-75
2022/01/29 00:03:26;;;;;;;3.10;2.90;;;;;;;-1.46;84.64;92609.00;5037730;28;20637;-75
2022/01/29 00:05:56;;;;;;;4.17;4.03;;;;;;;-1.63;85.41;92615.56;5036888;28;20441;-75
2022/01/29 00:08:23;;;;;;;5.37;3.47;;;;;;;-1.68;86.42;92613.06;5036720;28;20693;-75
2022/01/29 00:10:54;;;;;;;3.27;3.13;;;;;;;-1.79;86.80;92618.81;5037431;28;20237;-75
2022/01/29 00:13:21;;;;;;;5.77;5.57;;;;;;;-1.91;86.71;92619.59;5036318;28;20471;-75
2022/01/29 00:15:50;;;;;;;7.43;4.50;;;;;;;-1.97;86.98;92621.25;5035772;28;20564;-75
2022/01/29 00:18:17;;;;;;;4.50;4.27;;;;;;;-2.10;87.53;92612.94;5036974;28;20558;-75
2022/01/29 00:20:44;;;;;;;4.07;3.37;;;;;;;-2.08;87.81;92613.75;5037190;28;20605;-75
2022/01/29 00:23:12;;;;;;;3.57;3.47;;;;;;;-2.19;87.84;92625.25;5036791;28;20550;-75
2022/01/29 00:25:39;;;;;;;3.07;2.97;;;;;;;-2.30;88.19;92619.44;5036127;28;20508;-75
2022/01/29 00:28:06;;;;;;;3.87;2.73;;;;;;;-2.36;88.18;92619.41;5036369;28;20300;-75
2022/01/29 00:30:38;;;;;;;2.93;2.53;;;;;;;-2.44;88.47;92609.50;5037322;28;20596;-75
2022/01/29 00:33:07;;;;;;;2.70;2.30;;;;;;;-2.37;88.80;92620.25;5036685;28;20468;-75
2022/01/29 00:35:34;;;;;;;3.17;3.07;;;;;;;-2.53;88.72;92602.84;5036200;28;20653;-75
2022/01/29 00:38:02;;;;;;;2.10;2.10;;;;;;;-2.46;88.82;92625.94;5036497;28;20691;-75
2022/01/29 00:40:31;;;;;;;3.77;2.83;;;;;;;-2.56;88.70;92616.84;5036424;28;20519;-75
2022/01/29 00:42:58;;;;;;;5.20;4.03;;;;;;;-2.54;88.96;92625.94;5036969;28;20198;-75
2022/01/29 00:45:25;;;;;;;8.87;3.17;;;;;;;-2.71;88.86;92610.16;5035994;28;20313;-75
2022/01/29 00:47:53;;;;;;;1.50;1.50;;;;;;;-2.69;89.43;92620.88;5036009;28;20607;-75
2022/01/29 00:50:21;;;;;;;1.93;1.93;;;;;;;-2.79;89.55;92613.38;5036532;28;20550;-75
2022/01/29 00:52:49;;;;;;;1.87;1.77;;;;;;;-2.92;90.58;92595.19;5035646;28;20528;-75
2022/01/29 00:55:16;;;;;;;1.53;1.53;;;;;;;-2.86;90.43;92615.00;5036227;28;20249;-76
2022/01/29 00:57:43;;;;;;;1.70;1.60;;;;;;;-2.90;90.94;92613.31;5035672;28;20229;-77
2022/01/29 01:00:12;;;;;;;1.60;1.60;;;;;;;-2.90;90.74;92610.84;5035954;28;20600;-77
2022/01/29 01:02:40;;;;;;;3.17;2.90;;;;;;;-2.95;90.02;92612.47;5036374;28;20561;-76
2022/01/29 01:05:08;;;;;;;2.03;2.03;;;;;;;-3.03;89.62;92605.00;5036027;28;20197;-76
2022/01/29 01:07:37;;;;;;;0.97;0.97;;;;;;;-3.03;89.98;92607.47;5035487;28;20197;-76
2022/01/29 01:10:06;;;;;;;1.03;1.03;;;;;;;-3.00;90.07;92611.59;5035821;28;20256;-76
2022/01/29 01:12:33;;;;;;;2.67;1.20;;;;;;;-2.88;89.09;92605.94;5035609;28;20209;-76
2022/01/29 01:15:01;;;;;;;1.43;1.43;;;;;;;-2.80;88.97;92611.72;5035676;28;20610;-76
2022/01/29 01:17:29;;;;;;;2.23;2.13;;;;;;;-2.71;87.46;92616.75;5047341;28;20212;-76
2022/01/29 01:19:56;;;;;;;1.47;1.47;;;;;;;-2.70;86.80;92609.31;5036021;28;20682;-76
2022/01/29 01:22:23;;;;;;;2.97;2.00;;;;;;;-2.72;86.28;92601.09;5036029;28;20589;-76
2022/01/29 01:24:52;;;;;;;2.73;2.47;;;;;;;-2.54;85.41;92615.22;5035826;28;20558;-77
2022/01/29 01:27:19;;;;;;;2.37;2.27;;;;;;;-2.45;84.37;92619.38;5035746;28;20680;-77
2022/01/29 01:29:47;;;;;;;3.57;3.37;;;;;;;-2.44;84.21;92613.59;5035259;28;20670;-76
2022/01/29 01:32:14;;;;;;;2.77;2.67;;;;;;;-2.43;84.00;92608.69;5035512;28;20610;-77
2022/01/29 01:34:46;;;;;;;2.20;2.20;;;;;;;-2.40;83.97;92607.84;5035644;28;20581;-77
2022/01/29 01:37:20;;;;;;;3.47;3.27;;;;;;;-2.39;84.39;92602.09;5035078;28;20557;-76
2022/01/29 01:39:47;;;;;;;2.33;2.30;;;;;;;-2.56;85.38;92597.88;5035697;28;20637;-76
2022/01/29 01:42:15;;;;;;;1.50;1.50;;;;;;;-2.54;85.13;92603.69;5035524;28;20205;-76
2022/01/29 01:44:46;;;;;;;2.33;2.27;;;;;;;-2.53;84.09;92609.41;5036131;28;20301;-76
2022/01/29 01:47:14;;;;;;;1.63;1.63;;;;;;;-2.84;86.29;92602.66;5035374;28;20555;-77
2022/01/29 01:49:41;;;;;;;8.00;1.40;;;;;;;-2.82;86.14;92610.91;5035934;28;20538;-77
2022/01/29 01:52:11;;;;;;;1.47;1.47;;;;;;;-2.87;86.64;92610.06;5036549;28;20734;-77
2022/01/29 01:54:39;;;;;;;1.80;1.80;;;;;;;-3.03;87.60;92605.00;5035721;28;20483;-76
2022/01/29 01:57:07;;;;;;;1.20;1.20;;;;;;;-3.18;88.31;92594.16;5036172;28;20536;-76
2022/01/29 01:59:36;;;;;;;1.73;1.70;;;;;;;-3.30;89.37;92589.97;5036108;28;20629;-76
2022/01/29 02:02:03;;;;;;;2.13;2.03;;;;;;;-3.08;87.92;92604.13;5034756;28;20201;-77
2022/01/29 02:04:32;;;;;;;1.17;1.17;;;;;;;-2.96;86.89;92610.81;5037117;28;20224;-77
2022/01/29 02:07:01;;;;;;;1.93;1.93;;;;;;;-3.22;88.43;92593.34;5035460;28;20581;-76
2022/01/29 02:09:30;;;;;;;1.57;1.57;;;;;;;-3.36;89.32;92598.16;5037477;28;20618;-76
2022/01/29 02:12:00;;;;;;;2.00;1.93;;;;;;;-3.38;89.71;92602.22;5039047;28;20483;-76
2022/01/29 02:14:30;;;;;;;1.80;1.80;;;;;;;-3.58;89.14;92600.41;5039490;28;20609;-76
2022/01/29 02:17:00;;;;;;;2.57;1.63;;;;;;;-3.73;90.03;92598.63;5039457;28;20197;-76
2022/01/29 02:19:28;;;;;;;1.23;1.23;;;;;;;-3.85;90.22;92613.31;5040196;28;20232;-76
2022/01/29 02:21:57;;;;;;;2.70;2.63;;;;;;;-3.67;89.19;92615.97;5039144;28;20595;-77
2022/01/29 02:24:24;;;;;;;1.67;1.67;;;;;;;-3.76;89.76;92610.94;5039067;28;20580;-76
2022/01/29 02:26:53;;;;;;;2.37;2.33;;;;;;;-3.85;90.53;92599.34;5039605;28;20594;-76
2022/01/29 02:29:20;;;;;;;1.87;1.77;;;;;;;-3.94;90.94;92595.94;5039131;28;20533;-76
2022/01/29 02:31:50;;;;;;;1.00;1.00;;;;;;;-3.92;91.40;92599.25;5038595;28;20583;-76
2022/01/29 02:34:18;;;;;;;1.00;1.00;;;;;;;-3.99;92.31;92582.72;5039051;28;20604;-76
2022/01/29 02:36:46;;;;;;;0.93;0.93;;;;;;;-3.90;92.38;92590.25;5039153;28;20604;-76
2022/01/29 02:39:20;;;;;;;2.30;1.67;;;;;;;-3.88;91.71;92586.97;5038392;28;20522;-76
2022/01/29 02:41:47;;;;;;;0.90;0.90;;;;;;;-3.90;91.61;92585.31;5039719;28;20482;-76
2022/01/29 02:44:19;;;;;;;3.37;1.30;;;;;;;-3.95;91.74;92584.44;5038490;28;20583;-76
2022/01/29 02:46:51;;;;;;;1.17;1.17;;;;;;;-4.10;91.93;92562.88;5038533;28;20501;-76
2022/01/29 02:49:21;;;;;;;1.70;1.70;;;;;;;-4.14;92.09;92576.00;5038440;28;20595;-76
2022/01/29 02:51:49;;;;;;;0.87;0.87;;;;;;;-3.91;90.83;92583.66;5039042;28;20542;-76
2022/01/29 02:54:19;;;;;;;1.37;1.27;;;;;;;-4.04;90.92;92569.53;5039122;28;20209;-76
2022/01/29 02:56:46;;;;;;;0.80;0.80;;;;;;;-3.94;90.75;92581.97;5039110;28;20219;-76
2022/01/29 02:59:13;;;;;;;1.10;1.10;;;;;;;-3.80;89.61;92591.97;5038060;28;20600;-76
2022/01/29 03:01:41;;;;;;;1.30;1.30;;;;;;;-3.78;89.25;92583.78;5037905;28;20493;-76
2022/01/29 03:04:08;;;;;;;1.13;1.13;;;;;;;-3.71;89.19;92604.41;5038115;28;20607;-76
2022/01/29 03:06:36;;;;;;;0.80;0.80;;;;;;;-3.65;88.17;92609.41;5037858;28;20665;-76
2022/01/29 03:09:04;;;;;;;1.07;1.07;;;;;;;-3.69;88.47;92599.47;5037405;28;20509;-76
2022/01/29 03:11:33;;;;;;;1.80;1.13;;;;;;;-3.69;88.53;92599.47;5038207;28;20261;-76
2022/01/29 03:14:00;;;;;;;1.17;1.17;;;;;;;-3.77;88.25;92610.09;5039067;28;20646;-76
2022/01/29 03:16:28;;;;;;;0.87;0.87;;;;;;;-3.79;88.50;92614.22;5038197;28;20600;-76
2022/01/29 03:18:55;;;;;;;1.23;1.23;;;;;;;-3.76;87.34;92609.28;5037701;28;20587;-76
2022/01/29 03:21:22;;;;;;;0.90;0.90;;;;;;;-3.89;88.55;92600.13;5037476;28;20589;-76
2022/01/29 03:23:49;;;;;;;0.90;0.90;;;;;;;-3.98;88.37;92607.41;5037602;28;20603;-76
2022/01/29 03:26:16;;;;;;;1.67;1.67;;;;;;;-4.21;88.99;92592.38;5037733;28;20728;-76
2022/01/29 03:28:45;;;;;;;3.43;1.73;;;;;;;-4.20;89.86;92590.72;5037007;28;20617;-76
2022/01/29 03:31:12;;;;;;;1.23;1.23;;;;;;;-4.07;88.86;92602.41;5037132;28;20645;-76
2022/01/29 03:33:39;;;;;;;1.20;1.20;;;;;;;-4.02;89.30;92607.38;5037935;28;20314;-76
2022/01/29 03:36:07;;;;;;;1.63;1.63;;;;;;;-3.91;88.67;92615.72;5037789;28;20207;-76
2022/01/29 03:38:34;;;;;;;2.20;2.20;;;;;;;-3.88;88.13;92613.25;5038072;28;21257;-76
2022/01/29 03:41:01;;;;;;;1.77;1.77;;;;;;;-4.05;88.26;92604.84;5037839;28;20550;-75
2022/01/29 03:43:32;;;;;;;1.57;1.57;;;;;;;-4.31;90.16;92593.06;5037052;28;20578;-76
2022/01/29 03:46:01;;;;;;;1.37;1.27;;;;;;;-4.27;90.35;92603.78;5037441;28;20462;-76
2022/01/29 03:48:28;;;;;;;1.13;1.13;;;;;;;-4.45;90.98;92593.72;5037984;28;20570;-76
2022/01/29 03:50:55;;;;;;;1.73;1.73;;;;;;;-4.46;91.26;92587.97;5037184;28;20498;-76
2022/01/29 03:53:22;;;;;;;1.53;1.53;;;;;;;-4.46;91.68;92589.59;5036996;28;20476;-76
2022/01/29 03:55:50;;;;;;;0.83;0.83;;;;;;;-4.30;90.62;92594.75;5037507;28;20578;-76
2022/01/29 03:58:17;;;;;;;1.00;1.00;;;;;;;-4.20;89.79;92598.97;5037611;28;20549;-76
2022/01/29 04:00:44;;;;;;;1.63;1.63;;;;;;;-4.34;89.94;92597.94;5036431;28;20581;-76
2022/01/29 04:03:13;;;;;;;0.97;0.97;;;;;;;-4.28;90.33;92597.22;5036981;28;20566;-76
2022/01/29 04:05:40;;;;;;;3.30;1.93;;;;;;;-4.47;90.93;92596.16;5036950;28;20635;-76
2022/01/29 04:08:16;;;;;;;0.83;0.83;;;;;;;-4.37;89.79;92602.88;5037299;28;20468;-76
2022/01/29 04:10:44;;;;;;;3.93;3.60;;;;;;;-4.24;89.26;92602.22;5043117;28;20492;-76
2022/01/29 04:13:13;;;;;;;3.40;2.73;;;;;;;-4.30;90.17;92606.22;5042039;28;20203;-76
2022/01/29 04:15:40;;;;;;;4.77;4.57;;;;;;;-4.19;88.52;92614.59;5036685;28;20206;-76
2022/01/29 04:18:07;;;;;;;3.17;3.07;;;;;;;-4.10;87.87;92618.78;5037241;28;20231;-76
2022/01/29 04:20:36;;;;;;;3.53;3.23;;;;;;;-4.24;88.80;92607.13;5036905;28;20566;-76
2022/01/29 04:23:06;;;;;;;5.57;4.33;;;;;;;-4.39;89.38;92608.56;5037742;28;20193;-76
2022/01/29 04:25:33;;;;;;;3.83;1.87;;;;;;;-4.29;88.16;92612.81;5037511;28;20313;-76
2022/01/29 04:28:01;;;;;;;4.60;4.17;;;;;;;-4.31;88.40;92617.72;5036586;28;20516;-76
2022/01/29 04:30:30;;;;;;;2.23;2.20;;;;;;;-4.62;89.27;92609.09;5036632;28;20625;-76
2022/01/29 04:33:02;;;;;;;1.90;1.80;;;;;;;-4.51;89.08;92625.69;5034906;28;20672;-76
2022/01/29 04:35:29;;;;;;;2.17;2.07;;;;;;;-4.41;88.94;92635.69;5036898;28;20220;-76
2022/01/29 04:37:58;;;;;;;3.80;3.43;;;;;;;-4.38;88.40;92629.94;5037190;28;20594;-76
2022/01/29 04:40:25;;;;;;;3.17;2.97;;;;;;;-4.51;88.87;92616.66;5036756;28;20537;-76
2022/01/29 04:42:53;;;;;;;2.33;2.33;;;;;;;-4.37;87.61;92646.41;5036583;28;20233;-76
2022/01/29 04:45:20;;;;;;;1.40;1.40;;;;;;;-4.40;87.97;92644.75;5036622;28;20491;-76
2022/01/29 04:47:47;;;;;;;1.90;1.83;;;;;;;-4.69;90.31;92636.13;5057637;28;20549;-76
2022/01/29 04:50:14;;;;;;;1.77;1.77;;;;;;;-4.86;91.18;92627.69;5055952;28;20612;-76
2022/01/29 04:52:41;;;;;;;3.53;3.43;;;;;;;-5.07;91.47;92618.34;5056433;28;20204;-76
2022/01/29 04:55:11;;;;;;;2.10;2.10;;;;;;;-5.00;91.91;92617.59;5056552;27;20543;-76
2022/01/29 04:57:41;;;;;;;5.10;4.40;;;;;;;-4.83;91.20;92631.00;5056757;28;20517;-76
2022/01/29 05:00:11;;;;;;;2.33;2.30;;;;;;;-4.76;91.06;92624.53;5056093;28;20573;-76
2022/01/29 05:02:39;;;;;;;3.83;3.63;;;;;;;-4.68;90.34;92633.69;5056203;28;20600;-76
2022/01/29 05:05:07;;;;;;;7.73;5.67;;;;;;;-4.69;88.87;92636.97;5056159;28;20588;-76
2022/01/29 05:07:34;;;;;;;3.83;3.60;;;;;;;-4.84;90.53;92630.97;5055491;28;20552;-76
2022/01/29 05:10:01;;;;;;;3.73;3.43;;;;;;;-4.68;89.50;92646.00;5056512;28;20615;-76
2022/01/29 05:12:35;;;;;;;4.47;4.27;;;;;;;-4.57;88.55;92651.09;5056981;28;20642;-76
2022/01/29 05:15:09;;;;;;;3.07;2.97;;;;;;;-4.87;90.06;92634.22;5056338;28;20709;-76
2022/01/29 05:28:36;;;;;;;4.77;4.37;;;;;;;-4.72;90.59;92655.78;5055804;28;20195;-76
2022/01/29 05:31:03;;;;;;;2.87;2.77;;;;;;;-4.78;91.16;92641.75;5055479;28;20589;-77
2022/01/29 05:33:30;;;;;;;6.47;5.97;;;;;;;-4.88;90.60;92621.88;5042669;28;20635;-77
2022/01/29 05:35:59;;;;;;;5.50;5.33;;;;;;;-4.68;91.02;92646.00;5037993;28;20589;-76
2022/01/29 05:38:27;;;;;;;10.70;5.43;;;;;;;-4.75;91.02;92636.03;5038033;28;20597;-77
2022/01/29 05:40:55;;;;;;;3.87;3.73;;;;;;;-4.74;90.60;92628.69;5039659;28;20555;-75
2022/01/29 05:43:22;;;;;;;5.57;5.37;;;;;;;-4.54;89.61;92655.22;5038647;28;20580;-75
2022/01/29 05:45:51;;;;;;;5.37;4.97;;;;;;;-4.64;91.13;92639.47;5042159;28;20519;-75
2022/01/29 05:48:18;;;;;;;3.77;3.67;;;;;;;-4.80;91.76;92631.06;5044107;28;20680;-75
2022/01/29 05:50:45;;;;;;;2.17;2.07;;;;;;;-4.71;92.58;92645.13;5048930;28;20638;-75
2022/01/29 05:53:12;;;;;;;3.90;3.70;;;;;;;-4.56;91.82;92656.84;5040891;27;20601;-75
2022/01/29 05:55:39;;;;;;;10.37;6.10;;;;;;;-4.58;91.36;92637.09;5042706;28;20551;-75
2022/01/29 05:58:07;;;;;;;6.07;5.77;;;;;;;-4.51;91.65;92648.72;5042258;28;20226;-75
2022/01/29 06:00:34;;;;;;;8.93;6.23;;;;;;;-4.38;91.19;92662.84;5041857;28;20596;-73
2022/01/29 06:03:04;;;;;;;3.87;3.77;;;;;;;-4.41;91.39;92659.50;5041475;28;20588;-76
2022/01/29 06:05:32;;;;;;;5.63;5.37;;;;;;;-4.55;92.29;92647.00;5058057;28;20622;-75
2022/01/29 06:07:59;;;;;;;6.20;4.33;;;;;;;-4.27;90.80;92667.91;5040905;28;20671;-74
2022/01/29 06:10:27;;;;;;;5.40;5.20;;;;;;;-4.32;90.80;92667.84;5050129;28;20504;-74
2022/01/29 06:12:59;;;;;;;6.17;4.00;;;;;;;-4.26;91.39;92662.16;5041351;28;20620;-74
2022/01/29 06:15:26;;;;;;;4.37;4.10;;;;;;;-4.04;90.10;92670.66;5045581;28;20696;-75
2022/01/29 06:17:53;;;;;;;4.60;4.30;;;;;;;-3.88;89.79;92678.25;5040820;28;20502;-75
2022/01/29 06:20:22;;;;;;;6.07;5.83;;;;;;;-3.74;88.23;92685.81;5043384;28;20551;-76
2022/01/29 06:22:49;;;;;;;5.40;5.10;;;;;;;-3.72;88.89;92676.81;5042363;28;20675;-74
2022/01/29 06:25:16;;;;;;;8.70;8.23;;;;;;;-3.65;87.53;92688.38;5042132;27;20725;-75
2022/01/29 06:27:43;;;;;;;9.33;8.63;;;;;;;-3.72;86.63;92678.44;5040530;28;20605;-75
2022/01/29 06:30:11;;;;;;;10.70;9.63;;;;;;;-3.56;87.02;92695.91;5043480;28;20338;-74
2022/01/29 06:32:38;;;;;;;11.87;10.97;;;;;;;-3.64;85.96;92685.09;5042687;28;20591;-74
2022/01/29 06:35:06;;;;;;;11.53;9.93;;;;;;;-3.55;86.33;92697.53;5043902;28;20207;-75
2022/01/29 06:37:35;;;;;;;9.47;9.00;;;;;;;-3.47;85.94;92707.50;5041046;28;20545;-75
2022/01/29 06:40:02;;;;;;;16.80;13.47;;;;;;;-3.58;86.63;92701.63;5042273;28;20558;-73
2022/01/29 06:42:29;;;;;;;19.03;15.33;;;;;;;-3.51;86.87;92706.66;5045476;28;20472;-76
2022/01/29 06:44:56;;;;;;;26.40;17.53;;;;;;;-3.42;86.69;92709.22;5037749;28;20592;-74
2022/01/29 06:47:24;;;;;;;17.40;15.43;;;;;;;-3.30;85.92;92720.84;5040926;28;20695;-74
2022/01/29 06:49:51;;;;;;;17.00;15.10;;;;;;;-3.36;86.59;92713.38;5042325;28;20494;-74
2022/01/29 06:52:18;;;;;;;16.83;15.17;;;;;;;-3.33;87.23;92710.13;5040498;28;20204;-74
2022/01/29 06:54:47;;;;;;;17.13;14.17;;;;;;;-3.21;86.75;92716.00;5041563;28;20233;-74
2022/01/29 06:57:14;;;;;;;10.50;10.07;;;;;;;-3.11;86.20;92717.75;5039969;28;20326;-73
2022/01/29 06:59:41;;;;;;;11.30;10.50;;;;;;;-2.99;85.48;92734.34;5040178;28;20584;-75
2022/01/29 07:02:09;;;;;;;19.90;12.30;;;;;;;-2.95;84.96;92714.59;5039774;28;20514;-75
2022/01/29 07:04:36;;;;;;;12.43;11.03;;;;;;;-2.85;84.84;92724.56;5038478;28;20494;-75
2022/01/29 07:07:04;;;;;;;11.07;10.23;;;;;;;-2.84;85.42;92722.13;5040061;28;20213;-75
2022/01/29 07:09:31;;;;;;;12.47;10.90;;;;;;;-2.77;85.66;92705.69;5041798;28;20458;-74
2022/01/29 07:12:08;;;;;;;14.30;12.97;;;;;;;-2.60;84.92;92732.22;5047248;28;20571;-74
2022/01/29 07:14:37;;;;;;;33.17;20.07;;;;;;;-2.73;84.95;92719.72;5036907;28;20592;-73
2022/01/29 07:17:06;;;;;;;65.83;29.10;;;;;;;-2.61;84.19;92740.44;5040296;28;20204;-74
2022/01/29 07:19:33;;;;;;;31.60;21.90;;;;;;;-2.66;84.12;92743.69;5039505;28;20498;-73
2022/01/29 07:22:00;;;;;;;23.37;15.93;;;;;;;-2.78;85.02;92737.00;5039825;28;20679;-74
2022/01/29 07:24:27;;;;;;;26.50;19.90;;;;;;;-2.73;84.87;92747.75;5040943;28;20560;-74
2022/01/29 07:26:54;;;;;;;13.87;12.23;;;;;;;-2.67;84.51;92737.91;5041042;27;20539;-75
2022/01/29 07:29:26;;;;;;;16.77;11.27;;;;;;;-2.65;84.38;92736.25;5039260;28;20212;-74
2022/01/29 07:31:54;;;;;;;10.53;9.73;;;;;;;-2.62;84.10;92723.94;5050879;28;20539;-73
2022/01/29 07:34:21;;;;;;;13.03;11.87;;;;;;;-2.62;82.91;92718.16;5039008;28;20478;-73
2022/01/29 07:36:48;;;;;;;10.90;9.40;;;;;;;-2.53;82.60;92733.88;5039249;28;20581;-73
2022/01/29 07:39:15;;;;;;;10.43;9.73;;;;;;;-2.54;83.00;92714.13;5040576;28;20516;-74
2022/01/29 07:41:49;;;;;;;30.20;13.53;;;;;;;-2.55;83.24;92717.41;5040086;28;20588;-73
2022/01/29 07:44:17;;;;;;;18.87;14.43;;;;;;;-2.44;83.42;92710.06;5037730;28;20504;-72
2022/01/29 07:46:45;;;;;;;36.47;22.60;;;;;;;-2.18;83.38;92720.94;5042659;28;20562;-73
2022/01/29 07:49:12;;;;;;;27.27;19.23;;;;;;;-2.01;82.84;92725.97;5042932;28;20460;-73
2022/01/29 07:51:40;;;;;;;16.50;12.80;;;;;;;-1.92;82.25;92734.31;5041683;28;20257;-73
2022/01/29 07:54:08;;;;;;;20.97;18.93;;;;;;;-1.76;81.71;92733.56;5037728;28;20483;-73
2022/01/29 07:56:35;;;;;;;36.53;18.77;;;;;;;-1.63;81.56;92736.09;5038233;28;20223;-74
2022/01/29 07:59:03;;;;;;;21.93;17.80;;;;;;;-1.71;81.03;92721.19;5039049;28;20236;-75
2022/01/29 08:01:31;;;;;;;51.83;27.93;;;;;;;-1.57;79.91;92741.06;5038854;28;20599;-77
2022/01/29 08:03:59;;;;;;;24.27;17.57;;;;;;;-1.67;78.34;92725.34;5036840;28;20581;-74
2022/01/29 08:06:29;;;;;;;21.97;15.97;;;;;;;-1.78;79.60;92715.38;5036070;28;20270;-74
2022/01/29 08:08:57;;;;;;;20.40;17.93;;;;;;;-1.65;79.61;92722.88;5042168;28;20677;-74
2022/01/29 08:11:25;;;;;;;19.73;17.80;;;;;;;-1.78;79.12;92703.00;5040893;28;20671;-73
2022/01/29 08:13:52;;;;;;;21.53;18.03;;;;;;;-1.56;79.41;92720.41;5035860;28;20609;-73
2022/01/29 08:16:20;;;;;;;46.30;27.67;;;;;;;-1.54;78.89;92734.47;5035448;28;20201;-74
2022/01/29 08:18:47;;;;;;;50.80;29.63;;;;;;;-1.48;78.48;92739.47;5037011;28;20502;-77
2022/01/29 08:21:17;;;;;;;27.23;23.17;;;;;;;-1.43;78.76;92737.81;5036703;28;20592;-76
2022/01/29 08:23:45;;;;;;;16.63;15.37;;;;;;;-1.39;78.05;92737.00;5037418;28;20197;-75
2022/01/29 08:26:13;;;;;;;21.00;15.13;;;;;;;-1.35;78.07;92730.41;5035984;28;20201;-75
2022/01/29 08:28:41;;;;;;;24.10;16.03;;;;;;;-1.27;78.97;92731.25;5036364;28;20575;-75
2022/01/29 08:31:09;;;;;;;18.17;16.47;;;;;;;-1.30;77.54;92727.16;5035836;27;20218;-75
2022/01/29 08:33:36;;;;;;;13.10;11.73;;;;;;;-1.06;76.69;92756.09;5041136;28;20549;-74
2022/01/29 08:36:04;;;;;;;18.30;12.40;;;;;;;-0.99;76.36;92761.91;5042227;28;20683;-74
2022/01/29 08:38:35;;;;;;;25.37;16.57;;;;;;;-0.96;76.00;92761.94;5044326;28;20205;-74
2022/01/29 08:41:03;;;;;;;27.03;17.10;;;;;;;-0.98;75.14;92764.41;5042901;28;20598;-75
2022/01/29 08:43:32;;;;;;;13.47;12.33;;;;;;;-1.01;75.10;92775.94;5034751;28;20201;-75
2022/01/29 08:46:02;;;;;;;12.17;8.07;;;;;;;-1.08;75.17;92767.69;5040512;28;20197;-75
2022/01/29 08:48:29;;;;;;;12.40;8.60;;;;;;;-0.97;74.29;92783.41;5036717;28;20700;-74
2022/01/29 08:50:57;;;;;;;16.13;10.90;;;;;;;-1.00;74.00;92775.94;5036607;28;20640;-75
2022/01/29 08:53:24;;;;;;;7.10;6.40;;;;;;;-1.04;73.12;92784.22;5036125;28;20586;-76
2022/01/29 08:55:53;;;;;;;7.43;7.10;;;;;;;-1.00;74.52;92785.88;5041997;28;20590;-73
2022/01/29 08:58:20;;;;;;;10.50;9.50;;;;;;;-1.01;74.41;92786.69;5043549;28;20497;-75
2022/01/29 09:00:47;;;;;;;15.73;11.73;;;;;;;-0.92;73.97;92793.34;5045530;28;20623;-75
2022/01/29 09:03:17;;;;;;;13.80;9.83;;;;;;;-1.17;74.58;92735.41;5039184;28;20605;-74
2022/01/29 09:05:45;;;;;;;8.60;7.93;;;;;;;-0.97;73.72;92790.84;5039951;28;20608;-73
2022/01/29 09:08:14;;;;;;;8.27;7.57;;;;;;;-1.12;74.93;92770.13;5044777;28;20674;-73
2022/01/29 09:10:41;;;;;;;8.00;7.53;;;;;;;-1.08;74.34;92782.56;5038312;28;20209;-73
2022/01/29 09:13:11;;;;;;;10.30;8.63;;;;;;;-0.96;74.13;92777.59;5036477;28;20295;-75
2022/01/29 09:15:38;;;;;;;10.50;9.57;;;;;;;-0.75;73.66;92790.91;5035059;28;20566;-75
2022/01/29 09:18:06;;;;;;;20.80;12.93;;;;;;;-0.64;73.94;92794.22;5037288;28;20585;-74
2022/01/29 09:20:33;;;;;;;10.30;9.63;;;;;;;-0.35;73.93;92780.19;5037437;28;20594;-74
2022/01/29 09:23:00;;;;;;;14.60;13.07;;;;;;;-0.04;73.19;92798.38;5038656;28;20585;-75
2022/01/29 09:25:28;;;;;;;20.07;16.20;;;;;;;0.16;71.61;92783.50;5035766;28;20528;-73
2022/01/29 09:27:55;;;;;;;27.47;16.93;;;;;;;0.39;71.54;92781.78;5040174;28;20582;-73
2022/01/29 09:30:24;;;;;;;24.47;17.73;;;;;;;0.68;71.77;92786.66;5039515;28;20601;-74
2022/01/29 09:32:51;;;;;;;30.27;20.27;;;;;;;0.97;70.79;92789.03;5035643;28;20585;-74
2022/01/29 09:35:19;;;;;;;28.97;18.57;;;;;;;1.16;70.22;92793.09;5034001;28;20203;-74
2022/01/29 09:37:46;;;;;;;28.43;16.20;;;;;;;1.37;68.49;92804.59;5035402;28;20268;-75
2022/01/29 09:40:14;;;;;;;26.57;15.17;;;;;;;1.42;66.95;92786.31;5037283;28;20604;-75
2022/01/29 09:42:44;;;;;;;27.17;15.17;;;;;;;1.68;66.76;92803.59;5037997;28;20551;-74
2022/01/29 09:45:14;;;;;;;30.97;17.77;;;;;;;1.91;66.24;92804.28;5035445;28;20663;-76
2022/01/29 09:47:44;;;;;;;24.83;14.13;;;;;;;2.18;65.34;92804.88;5045171;28;20590;-75
2022/01/29 09:50:13;;;;;;;38.97;16.33;;;;;;;2.41;64.52;92818.81;5039950;28;20224;-74
2022/01/29 09:52:40;;;;;;;14.93;8.37;;;;;;;2.64;62.90;92810.28;5037401;28;20523;-74
2022/01/29 09:55:09;;;;;;;9.17;7.63;;;;;;;2.96;61.39;92823.22;5037149;28;20633;-75
2022/01/29 09:57:37;;;;;;;13.90;10.10;;;;;;;3.14;61.42;92808.03;5048409;28;20525;-75
2022/01/29 10:00:07;;;;;;;15.50;8.80;;;;;;;3.29;60.84;92800.38;5036316;28;20686;-74
2022/01/29 10:02:37;;;;;;;25.67;12.20;;;;;;;3.50;60.60;92818.41;5045953;28;20481;-74
2022/01/29 10:05:08;;;;;;;60.50;27.17;;;;;;;3.49;59.85;92814.28;5051730;28;20596;-74
2022/01/29 10:07:35;;;;;;;38.90;14.97;;;;;;;3.62;59.81;92820.75;5043570;28;20202;-76
2022/01/29 10:10:03;;;;;;;27.97;16.47;;;;;;;3.67;58.80;92821.50;5040126;28;20265;-74
2022/01/29 10:12:32;;;;;;;30.80;16.37;;;;;;;3.74;60.04;92813.06;5036809;28;20566;-76
2022/01/29 10:15:02;;;;;;;40.57;16.53;;;;;;;3.79;59.75;92806.34;5034222;28;20690;-75
2022/01/29 10:17:40;;;;;;;20.67;11.67;;;;;;;3.85;59.58;92806.25;5035918;28;20201;-75
2022/01/29 10:20:10;;;;;;;8.20;7.43;;;;;;;3.73;60.37;92799.75;5041091;28;20449;-77
2022/01/29 10:22:38;;;;;;;14.33;9.53;;;;;;;3.61;61.16;92789.94;5038362;28;20267;-76
2022/01/29 10:25:07;;;;;;;10.53;7.37;;;;;;;3.50;62.01;92771.78;5040870;28;20600;-74
2022/01/29 10:27:35;;;;;;;16.30;11.07;;;;;;;3.38;63.61;92751.16;5039677;28;20805;-76
2022/01/29 10:30:03;;;;;;;21.97;11.33;;;;;;;3.44;64.37;92756.03;5047828;28;20784;-73
2022/01/29 10:32:33;;;;;;;10.80;8.50;;;;;;;3.46;62.77;92779.34;5041400;28;20739;-74
2022/01/29 10:35:01;;;;;;;19.47;7.90;;;;;;;3.40;63.13;92775.25;5047548;28;20600;-74
2022/01/29 10:37:30;;;;;;;31.67;16.13;;;;;;;3.47;63.54;92771.00;5051858;28;20478;-73
2022/01/29 10:39:58;;;;;;;17.87;10.00;;;;;;;3.30;63.51;92757.09;5043163;28;20569;-75
2022/01/29 10:42:27;;;;;;;22.60;7.90;;;;;;;3.47;63.72;92771.00;5045884;27;20220;-74
2022/01/29 10:44:55;;;;;;;27.90;11.63;;;;;;;3.24;63.55;92764.66;5052552;28;20496;-76
2022/01/29 10:47:23;;;;;;;19.77;10.83;;;;;;;3.35;64.18;92769.50;5051090;28;20197;-74
2022/01/29 10:49:53;;;;;;;26.63;18.90;;;;;;;3.42;64.24;92770.25;5050656;28;20236;-73
2022/01/29 10:52:27;;;;;;;17.17;7.70;;;;;;;3.50;63.52;92788.44;5051398;28;20633;-74
2022/01/29 10:55:00;;;;;;;8.73;7.63;;;;;;;3.61;63.55;92784.09;5049462;28;20215;-74
2022/01/29 10:57:35;;;;;;;20.30;10.00;;;;;;;3.48;63.79;92765.16;5051346;28;20557;-73
2022/01/29 11:00:06;;;;;;;5.77;5.30;;;;;;;3.67;64.07;92779.03;5051323;28;20591;-75
2022/01/29 11:02:33;;;;;;;9.10;6.00;;;;;;;3.43;63.26;92780.22;5049353;28;20622;-74
2022/01/29 11:05:03;;;;;;;16.33;6.23;;;;;;;3.40;63.59;92777.75;5051736;27;20600;-73
2022/01/29 11:07:31;;;;;;;6.60;6.10;;;;;;;3.53;63.92;92775.91;5040625;27;20470;-74
2022/01/29 11:10:04;;;;;;;13.53;7.83;;;;;;;3.60;63.90;92778.31;5041238;27;20621;-75
2022/01/29 11:12:32;;;;;;;25.17;12.17;;;;;;;3.51;62.85;92773.44;5044832;28;20598;-74
2022/01/29 11:15:02;;;;;;;5.60;5.20;;;;;;;3.34;62.33;92788.63;5046387;27;20225;-74
2022/01/29 11:17:31;;;;;;;20.17;6.53;;;;;;;3.07;64.25;92773.19;5037338;27;20201;-74
2022/01/29 11:20:00;;;;;;;7.07;5.17;;;;;;;2.88;66.01;92747.63;5039415;28;20643;-74
2022/01/29 11:22:32;;;;;;;3.87;3.53;;;;;;;2.70;66.21;92735.38;5039984;28;20490;-75
2022/01/29 11:25:05;;;;;;;4.70;4.40;;;;;;;2.78;67.28;92736.09;5040775;28;20868;-74
2022/01/29 11:27:34;;;;;;;9.73;7.57;;;;;;;3.03;66.40;92747.47;5050225;28;20600;-75
2022/01/29 11:30:04;;;;;;;6.53;4.67;;;;;;;3.32;65.61;92740.38;5054821;28;20237;-75
2022/01/29 11:32:38;;;;;;;28.80;10.07;;;;;;;3.62;65.20;92739.13;5051037;28;20615;-74
2022/01/29 11:35:20;;;;;;;9.57;5.93;;;;;;;4.57;62.40;92765.91;5043596;28;20580;-73
2022/01/29 11:37:53;;;;;;;12.37;9.40;;;;;;;5.64;59.05;92787.97;5051048;28;20515;-72
2022/01/29 11:40:25;;;;;;;12.23;7.70;;;;;;;6.55;53.78;92827.72;5049277;28;20339;-73
2022/01/29 11:43:06;;;;;;;9.27;7.60;;;;;;;7.06;51.50;92828.09;5051556;28;20574;-72
2022/01/29 11:45:44;;;;;;;10.43;8.87;;;;;;;7.04;50.88;92838.19;5048152;27;20942;-73